Time;durP1;ratioP1;P1;durP2;ratioP2;P2;SDS_P1;SDS_P2;PMS_P1;PMS_P2;Temp;Humidity;BMP_temperature;BMP_pressure;BME280_temperature;BME280_humidity;BME280_pressure;Samples;Min_cycle;Max_cycle;Signal;HPM_P1;HPM_P2
2023/10/04 00:00:27;;;;;;;9.05;6.60;;;;;;;11.84;66.01;95521.47;5075915;28;20427;-70
2023/10/04 00:02:52;;;;;;;12.77;6.47;;;;;;;11.79;66.14;95521.00;5082412;28;20559;-70
2023/10/04 00:05:26;;;;;;;11.27;7.43;;;;;;;11.73;66.32;95516.22;5089754;28;20036;-70
2023/10/04 00:07:52;;;;;;;9.40;6.68;;;;;;;11.73;66.23;95511.03;5091256;28;20490;-70
2023/10/04 00:10:18;;;;;;;12.90;7.20;;;;;;;11.70;66.30;95511.25;5083619;28;20119;-70
2023/10/04 00:12:45;;;;;;;9.95;6.95;;;;;;;11.59;66.52;95496.50;5082051;28;20082;-70
2023/10/04 00:15:12;;;;;;;10.15;7.10;;;;;;;11.79;66.17;95513.19;5087313;28;20031;-70
2023/10/04 00:17:41;;;;;;;10.43;7.45;;;;;;;11.69;66.17;95510.44;5081050;28;20032;-70
2023/10/04 00:20:10;;;;;;;10.32;7.20;;;;;;;11.70;66.25;95514.72;5073209;28;20035;-70
2023/10/04 00:22:36;;;;;;;11.85;7.72;;;;;;;11.54;66.63;95494.22;5047818;28;20032;-70
2023/10/04 00:25:03;;;;;;;11.10;7.15;;;;;;;11.64;66.28;95507.34;5089004;28;20030;-70
2023/10/04 00:27:29;;;;;;;13.60;7.40;;;;;;;11.51;66.50;95494.47;5082408;28;20064;-70
2023/10/04 00:29:54;;;;;;;12.32;6.65;;;;;;;11.57;66.44;95506.19;5061053;28;20029;-70
2023/10/04 00:32:20;;;;;;;9.75;7.22;;;;;;;11.41;66.96;95506.50;5071478;28;20494;-70
2023/10/04 00:34:46;;;;;;;13.68;7.80;;;;;;;11.45;66.81;95484.53;5083188;28;20066;-70
2023/10/04 00:37:11;;;;;;;12.95;7.93;;;;;;;11.52;66.53;95496.09;5083764;28;20283;-70
2023/10/04 00:39:38;;;;;;;10.63;6.95;;;;;;;11.51;66.73;95501.44;5079352;28;20027;-70
2023/10/04 00:42:03;;;;;;;11.07;7.32;;;;;;;11.45;66.73;95505.34;5075686;28;20036;-69
2023/10/04 00:44:33;;;;;;;11.07;7.03;;;;;;;11.41;66.71;95486.50;5073595;28;20422;-70
2023/10/04 00:46:59;;;;;;;11.73;6.90;;;;;;;11.44;66.79;95503.66;5085109;28;20094;-70
2023/10/04 00:49:24;;;;;;;11.23;7.45;;;;;;;11.27;66.88;95484.13;5071542;28;20513;-70
2023/10/04 00:51:49;;;;;;;12.50;7.68;;;;;;;11.32;66.73;95488.97;5077384;28;20032;-70
2023/10/04 00:54:16;;;;;;;11.48;7.22;;;;;;;11.29;67.26;95494.41;5090004;28;20043;-70
2023/10/04 00:56:42;;;;;;;10.60;7.53;;;;;;;11.40;66.92;95499.66;5069716;28;20024;-70
2023/10/04 00:59:09;;;;;;;10.35;7.45;;;;;;;11.34;66.70;95489.72;5068697;28;20406;-70
2023/10/04 01:01:34;;;;;;;10.88;7.32;;;;;;;11.36;66.47;95500.81;5062598;28;20055;-70
2023/10/04 01:04:04;;;;;;;11.02;7.22;;;;;;;11.36;66.67;95500.81;5090602;28;20020;-70
2023/10/04 01:06:30;;;;;;;9.90;7.25;;;;;;;11.34;66.79;95505.31;5060438;28;20037;-70
2023/10/04 01:08:56;;;;;;;11.57;7.32;;;;;;;11.35;66.76;95501.75;5053719;28;20024;-69
2023/10/04 01:11:22;;;;;;;11.23;7.18;;;;;;;11.34;66.77;95507.91;5070085;28;20036;-69
2023/10/04 01:13:47;;;;;;;10.48;7.03;;;;;;;11.30;66.66;95502.09;5053524;28;20021;-69
2023/10/04 01:16:15;;;;;;;10.38;6.97;;;;;;;11.31;66.53;95503.78;5085115;28;20405;-70
2023/10/04 01:18:40;;;;;;;10.82;7.07;;;;;;;11.16;67.05;95499.69;5053433;28;20032;-70
2023/10/04 01:21:06;;;;;;;9.63;6.80;;;;;;;11.23;66.80;95500.06;5053288;28;20051;-70
2023/10/04 01:23:33;;;;;;;13.98;7.38;;;;;;;11.22;67.05;95508.81;5073375;28;20024;-70
2023/10/04 01:26:00;;;;;;;11.10;7.55;;;;;;;11.11;67.27;95502.63;5091599;28;20066;-70
2023/10/04 01:28:28;;;;;;;12.00;7.68;;;;;;;11.08;67.20;95495.06;5090314;28;20044;-70
2023/10/04 01:30:55;;;;;;;9.52;7.10;;;;;;;11.17;67.10;95507.41;5086428;28;20039;-70
2023/10/04 01:33:21;;;;;;;10.20;7.40;;;;;;;11.21;67.10;95504.56;5085466;28;20482;-70
2023/10/04 01:35:51;;;;;;;12.27;8.00;;;;;;;11.14;67.16;95511.97;5079072;28;20062;-70
2023/10/04 01:38:16;;;;;;;11.05;7.50;;;;;;;11.03;67.44;95519.72;5078021;28;20028;-70
2023/10/04 01:40:43;;;;;;;10.25;7.28;;;;;;;11.09;67.54;95516.72;5069641;28;20062;-69
2023/10/04 01:43:17;;;;;;;12.00;7.10;;;;;;;11.10;67.27;95516.56;5069947;28;20496;-70
2023/10/04 01:45:50;;;;;;;11.63;7.00;;;;;;;11.12;66.90;95511.28;5089718;28;20307;-70
2023/10/04 01:48:15;;;;;;;10.70;6.95;;;;;;;11.09;67.31;95512.34;5078858;28;20032;-70
2023/10/04 01:50:44;;;;;;;12.07;7.75;;;;;;;11.10;67.30;95503.56;5069710;28;20032;-70
2023/10/04 01:53:10;;;;;;;14.43;7.32;;;;;;;11.06;67.43;95512.56;5073322;28;20110;-70
2023/10/04 01:55:36;;;;;;;9.82;6.88;;;;;;;10.74;67.55;95468.13;5075597;28;20497;-70
2023/10/04 01:58:01;;;;;;;9.65;6.93;;;;;;;10.97;67.70;95505.41;5078430;28;20024;-69
2023/10/04 02:00:28;;;;;;;9.82;6.95;;;;;;;10.96;67.63;95501.16;5077971;28;20044;-70
2023/10/04 02:02:54;;;;;;;10.35;7.20;;;;;;;10.92;68.00;95508.38;5082297;28;20115;-70
2023/10/04 02:05:26;;;;;;;10.43;7.47;;;;;;;10.95;67.76;95504.72;5066331;28;20116;-70
2023/10/04 02:07:53;;;;;;;9.65;7.07;;;;;;;10.90;67.79;95507.66;5088283;28;20465;-70
2023/10/04 02:10:19;;;;;;;12.32;7.43;;;;;;;10.96;67.75;95508.97;5066839;28;20457;-70
2023/10/04 02:12:44;;;;;;;12.45;6.85;;;;;;;10.84;67.76;95499.47;5071356;28;20028;-70
2023/10/04 02:15:17;;;;;;;9.82;6.75;;;;;;;10.89;67.92;95515.53;5083255;28;20437;-70
2023/10/04 02:17:45;;;;;;;10.30;7.20;;;;;;;10.95;67.66;95502.13;5081096;28;20024;-70
2023/10/04 02:20:13;;;;;;;11.15;7.03;;;;;;;10.81;67.84;95516.13;5073344;28;20082;-70
2023/10/04 02:22:39;;;;;;;10.43;6.90;;;;;;;10.76;68.27;95513.03;5068497;28;20020;-70
2023/10/04 02:25:06;;;;;;;12.48;7.22;;;;;;;10.63;68.56;95512.25;5086653;28;20406;-70
2023/10/04 02:27:32;;;;;;;13.43;7.25;;;;;;;10.54;68.72;95507.72;5066286;28;20040;-70
2023/10/04 02:29:57;;;;;;;11.18;8.18;;;;;;;10.61;68.80;95514.94;5088031;28;20107;-70
2023/10/04 02:32:25;;;;;;;10.55;7.38;;;;;;;10.59;68.71;95509.03;5077686;28;20085;-69
2023/10/04 02:34:52;;;;;;;10.60;7.25;;;;;;;10.65;69.02;95508.59;5087017;28;20032;-70
2023/10/04 02:37:19;;;;;;;11.80;7.18;;;;;;;10.71;68.41;95504.72;5078276;28;20033;-70
2023/10/04 02:39:44;;;;;;;11.27;7.68;;;;;;;10.56;68.82;95480.69;5080060;28;20033;-69
2023/10/04 02:42:09;;;;;;;12.32;7.30;;;;;;;10.53;68.65;95488.72;5076561;28;20028;-69
2023/10/04 02:44:39;;;;;;;12.23;6.97;;;;;;;10.50;68.91;95488.91;5087350;28;20531;-70
2023/10/04 02:47:06;;;;;;;11.43;7.53;;;;;;;10.60;68.93;95513.28;5067666;28;20025;-70
2023/10/04 02:49:35;;;;;;;10.00;7.22;;;;;;;10.42;68.99;95497.25;5079530;28;20024;-70
2023/10/04 02:52:03;;;;;;;12.07;7.25;;;;;;;10.44;69.31;95515.31;5037041;28;20040;-70
2023/10/04 02:54:31;;;;;;;11.45;7.47;;;;;;;10.35;69.39;95500.41;5079163;28;20101;-70
2023/10/04 02:56:58;;;;;;;11.32;7.50;;;;;;;10.38;69.43;95513.16;5066296;28;20036;-70
2023/10/04 02:59:25;;;;;;;11.52;7.53;;;;;;;10.39;69.34;95504.44;5082043;28;20040;-69
2023/10/04 03:01:50;;;;;;;11.55;7.28;;;;;;;10.35;69.71;95508.19;5088763;28;20044;-70
2023/10/04 03:04:16;;;;;;;11.70;7.18;;;;;;;10.49;69.08;95515.81;5088457;28;20035;-70
2023/10/04 03:06:41;;;;;;;10.27;6.97;;;;;;;10.42;69.26;95506.81;5089884;28;20032;-70
2023/10/04 03:09:07;;;;;;;11.68;7.07;;;;;;;10.57;68.89;95502.28;5055291;28;20029;-70
2023/10/04 03:11:32;;;;;;;12.43;7.55;;;;;;;10.42;69.01;95501.59;5069497;28;20421;-71
2023/10/04 03:13:59;;;;;;;15.30;7.50;;;;;;;10.41;69.32;95508.56;5089655;28;20039;-70
2023/10/04 03:16:25;;;;;;;10.00;7.60;;;;;;;10.35;69.29;95513.38;5091325;28;20574;-70
2023/10/04 03:18:51;;;;;;;10.98;7.25;;;;;;;10.37;69.27;95503.72;5089654;28;20056;-70
2023/10/04 03:21:30;;;;;;;11.45;7.70;;;;;;;10.15;69.80;95501.78;5061506;28;20043;-70
2023/10/04 03:23:55;;;;;;;11.63;7.20;;;;;;;10.31;69.69;95514.53;5084298;28;20028;-70
2023/10/04 03:26:21;;;;;;;12.20;7.22;;;;;;;10.33;69.30;95510.88;5070728;28;20040;-70
2023/10/04 03:28:46;;;;;;;13.43;7.90;;;;;;;10.40;69.10;95519.91;5089154;28;20028;-70
2023/10/04 03:31:14;;;;;;;9.82;6.70;;;;;;;9.96;70.63;95531.59;5073926;28;20078;-69
2023/10/04 03:33:39;;;;;;;12.35;7.55;;;;;;;10.24;69.69;95522.72;5092970;28;20056;-70
2023/10/04 03:36:05;;;;;;;10.15;7.03;;;;;;;10.07;69.86;95515.28;5070228;28;20047;-70
2023/10/04 03:38:34;;;;;;;10.20;7.25;;;;;;;10.23;69.52;95520.25;5087916;28;20541;-70
2023/10/04 03:41:06;;;;;;;12.20;7.57;;;;;;;10.26;69.22;95528.66;5088031;28;20060;-70
2023/10/04 03:43:31;;;;;;;12.70;7.50;;;;;;;10.13;69.63;95525.25;5075637;28;20032;-70
2023/10/04 03:45:57;;;;;;;10.60;6.95;;;;;;;10.05;70.02;95512.78;5090340;28;20047;-70
2023/10/04 03:48:23;;;;;;;10.43;7.32;;;;;;;10.06;69.96;95526.63;5056146;28;20214;-70
2023/10/04 03:50:50;;;;;;;11.57;7.57;;;;;;;9.63;71.37;95512.22;5076642;28;20067;-69
2023/10/04 03:53:16;;;;;;;11.13;7.82;;;;;;;9.80;71.22;95521.44;5073730;28;20028;-70
2023/10/04 03:55:44;;;;;;;10.23;7.03;;;;;;;9.58;72.11;95509.13;5091128;28;20032;-70
2023/10/04 03:58:10;;;;;;;10.38;7.38;;;;;;;9.69;71.49;95521.34;5088248;28;20032;-70
2023/10/04 04:00:36;;;;;;;14.00;7.57;;;;;;;9.68;71.26;95509.31;5090569;28;20052;-70
2023/10/04 04:03:03;;;;;;;13.63;7.25;;;;;;;9.74;71.21;95519.28;5055583;28;20080;-70
2023/10/04 04:05:30;;;;;;;10.85;6.60;;;;;;;9.68;71.01;95514.50;5089244;28;20032;-70
2023/10/04 04:07:56;;;;;;;12.10;7.75;;;;;;;9.60;71.59;95517.59;5086973;28;20028;-69
2023/10/04 04:10:22;;;;;;;11.63;7.80;;;;;;;9.35;72.35;95517.59;5084337;28;20028;-70
2023/10/04 04:12:47;;;;;;;12.18;7.70;;;;;;;9.52;72.04;95524.25;5070691;28;20024;-70
2023/10/04 04:15:14;;;;;;;11.02;7.47;;;;;;;9.23;72.12;95511.47;5069166;28;20036;-71
2023/10/04 04:17:41;;;;;;;13.38;7.43;;;;;;;9.36;72.06;95524.44;5080955;28;20035;-70
2023/10/04 04:20:16;;;;;;;9.93;6.43;;;;;;;9.43;71.77;95517.94;5071950;28;20521;-70
2023/10/04 04:22:50;;;;;;;11.15;7.63;;;;;;;9.44;71.63;95518.75;5086157;28;20559;-72
2023/10/04 04:25:16;;;;;;;26.20;15.25;;;;;;;9.48;71.38;95508.06;5083404;28;20181;-70
2023/10/04 04:27:45;;;;;;;11.38;7.43;;;;;;;9.64;71.42;95523.44;5082187;28;20029;-70
2023/10/04 04:30:22;;;;;;;10.95;6.72;;;;;;;9.78;70.99;95525.94;5067972;28;20020;-70
2023/10/04 04:32:56;;;;;;;13.10;7.57;;;;;;;9.90;70.41;95518.22;5089675;28;20448;-70
2023/10/04 04:38:22;;;;;;;11.63;7.47;;;;;;;9.74;70.66;95489.91;5077295;28;20498;-70
2023/10/04 04:40:49;;;;;;;11.65;7.22;;;;;;;9.75;70.96;95518.34;5077956;28;20145;-70
2023/10/04 04:45:53;;;;;;;11.50;7.53;;;;;;;9.88;70.22;95520.91;5086109;28;20115;-70
2023/10/04 04:48:24;;;;;;;11.43;7.43;;;;;;;9.99;69.60;95512.41;5085960;28;20032;-70
2023/10/04 04:50:54;;;;;;;11.50;6.82;;;;;;;10.10;69.13;95506.47;5056811;28;20475;-70
2023/10/04 04:53:27;;;;;;;10.75;6.55;;;;;;;10.14;68.98;95507.88;5059211;28;20036;-70
2023/10/04 04:55:53;;;;;;;14.70;7.13;;;;;;;10.17;68.67;95518.91;5088889;28;20490;-70
2023/10/04 04:58:23;;;;;;;10.82;6.63;;;;;;;10.13;69.02;95520.06;5086970;28;20028;-69
2023/10/04 05:01:00;;;;;;;11.73;7.57;;;;;;;10.21;68.67;95517.75;5088923;28;20078;-70
2023/10/04 05:03:26;;;;;;;10.07;6.35;;;;;;;10.18;68.84;95528.34;5086204;28;20032;-70
2023/10/04 05:05:51;;;;;;;9.55;6.78;;;;;;;10.20;68.16;95510.91;5074971;28;20070;-70
2023/10/04 05:08:20;;;;;;;10.38;6.93;;;;;;;10.41;68.19;95523.34;5066973;28;20032;-70
2023/10/04 05:10:48;;;;;;;11.55;7.55;;;;;;;10.39;67.87;95520.88;5089534;28;20028;-70
2023/10/04 05:13:14;;;;;;;11.10;6.32;;;;;;;10.39;68.43;95528.66;5064885;28;20115;-70
2023/10/04 05:15:42;;;;;;;9.57;6.82;;;;;;;10.15;69.40;95531.16;5079804;28;20456;-70
2023/10/04 05:18:11;;;;;;;9.77;6.80;;;;;;;10.33;68.15;95536.84;5068012;28;20040;-70
2023/10/04 05:20:37;;;;;;;12.48;7.25;;;;;;;10.22;68.42;95529.81;5067143;28;20425;-70
2023/10/04 05:23:03;;;;;;;12.88;7.32;;;;;;;10.25;68.25;95533.94;5072043;28;20028;-70
2023/10/04 05:25:28;;;;;;;10.77;7.45;;;;;;;9.98;69.16;95518.53;5083321;28;20527;-70
2023/10/04 05:28:09;;;;;;;11.23;6.85;;;;;;;10.13;69.25;95533.03;5067248;28;20043;-70
2023/10/04 05:30:34;;;;;;;12.83;6.87;;;;;;;10.38;68.36;95544.34;5089104;28;20035;-70
2023/10/04 05:33:01;;;;;;;11.30;7.28;;;;;;;10.05;69.33;95545.72;5088554;28;20507;-70
2023/10/04 05:35:26;;;;;;;14.18;7.93;;;;;;;10.14;68.88;95542.50;5081261;28;20051;-70
2023/10/04 05:37:52;;;;;;;12.65;7.90;;;;;;;10.29;68.57;95541.44;5066465;28;20033;-70
2023/10/04 05:40:24;;;;;;;16.42;8.73;;;;;;;10.16;69.11;95540.59;5077366;28;20062;-70
2023/10/04 05:42:50;;;;;;;13.55;7.68;;;;;;;10.33;68.53;95551.63;5085458;28;20035;-70
2023/10/04 05:45:16;;;;;;;12.80;7.22;;;;;;;10.37;68.71;95551.31;5071044;28;20029;-70
2023/10/04 05:47:41;;;;;;;11.82;7.38;;;;;;;10.63;68.20;95554.63;5089428;28;20020;-70
2023/10/04 05:50:13;;;;;;;10.35;7.13;;;;;;;11.46;65.99;95543.41;5087130;28;20020;-70
2023/10/04 05:52:39;;;;;;;12.27;6.97;;;;;;;12.77;61.63;95535.97;5072790;28;20102;-70
2023/10/04 05:55:08;;;;;;;12.13;7.20;;;;;;;13.81;58.05;95543.91;5082033;28;20055;-71
2023/10/04 05:57:35;;;;;;;10.30;5.93;;;;;;;14.63;55.67;95536.97;5087443;28;20039;-70
2023/10/04 06:00:27;;;;;;;9.68;6.78;;;;;;;15.76;52.56;95546.94;5067982;28;20093;-71
2023/10/04 06:02:52;;;;;;;10.70;6.78;;;;;;;16.95;48.63;95548.78;5087443;28;20119;-71
2023/10/04 06:05:19;;;;;;;13.02;6.88;;;;;;;17.96;46.54;95548.50;5079534;28;20039;-71
2023/10/04 06:07:44;;;;;;;9.88;6.85;;;;;;;18.50;45.23;95548.31;5086140;28;20021;-72
2023/10/04 06:10:12;;;;;;;8.90;6.45;;;;;;;18.63;43.63;95555.75;5060438;28;20043;-71
2023/10/04 06:12:39;;;;;;;11.25;6.72;;;;;;;18.26;44.46;95541.94;5079637;28;20066;-71
2023/10/04 06:15:10;;;;;;;9.38;6.68;;;;;;;17.59;45.65;95551.34;5059722;28;20021;-71
2023/10/04 06:17:38;;;;;;;13.25;6.72;;;;;;;17.85;45.59;95551.41;5077885;28;20569;-71
2023/10/04 06:20:22;;;;;;;14.45;6.82;;;;;;;18.80;43.72;95544.31;5076674;28;20040;-70
2023/10/04 06:22:49;;;;;;;15.05;6.88;;;;;;;19.63;41.94;95546.09;5082296;28;20028;-72
2023/10/04 06:25:15;;;;;;;13.48;7.13;;;;;;;20.27;40.70;95551.47;5084835;28;20036;-71
2023/10/04 06:27:40;;;;;;;12.45;6.57;;;;;;;21.11;38.86;95544.69;5069557;28;20127;-71
2023/10/04 06:30:06;;;;;;;9.73;6.43;;;;;;;21.84;37.43;95547.81;5082730;28;20036;-71
2023/10/04 06:32:37;;;;;;;10.02;6.47;;;;;;;21.95;36.79;95534.16;5089929;28;20062;-71
2023/10/04 06:35:03;;;;;;;11.90;7.20;;;;;;;22.56;36.03;95546.47;5079694;28;20112;-71
2023/10/04 06:37:29;;;;;;;10.02;6.38;;;;;;;23.03;34.50;95535.47;5086943;28;20162;-72
2023/10/04 06:39:55;;;;;;;11.48;7.07;;;;;;;22.18;36.61;95552.69;5086600;28;20439;-71
2023/10/04 06:42:20;;;;;;;13.00;7.28;;;;;;;22.67;35.14;95536.22;5070669;28;20064;-75
2023/10/04 06:44:47;;;;;;;10.02;7.10;;;;;;;23.63;34.30;95546.69;5063446;28;20040;-72
2023/10/04 06:47:15;;;;;;;14.90;8.10;;;;;;;23.68;33.67;95546.09;5082475;28;20104;-73
2023/10/04 06:49:40;;;;;;;18.60;8.65;;;;;;;23.12;34.54;95554.72;5090291;28;20778;-72
2023/10/04 06:52:07;;;;;;;11.18;7.53;;;;;;;24.23;33.43;95557.78;5082614;28;20032;-70
2023/10/04 06:54:33;;;;;;;18.08;8.15;;;;;;;24.38;32.65;95550.56;5085292;28;20028;-70
2023/10/04 06:56:59;;;;;;;13.70;8.02;;;;;;;24.53;32.57;95543.31;5071456;28;20039;-71
2023/10/04 06:59:25;;;;;;;15.60;7.30;;;;;;;25.30;31.56;95559.19;5080258;28;20048;-70
2023/10/04 07:01:51;;;;;;;13.57;7.53;;;;;;;25.27;31.30;95560.41;5071967;28;20102;-71
2023/10/04 07:04:16;;;;;;;16.33;9.75;;;;;;;25.03;31.44;95558.25;5085056;28;20036;-70
2023/10/04 07:06:42;;;;;;;12.85;7.75;;;;;;;25.16;31.55;95556.50;5084328;28;20031;-71
2023/10/04 07:09:07;;;;;;;12.10;7.95;;;;;;;25.17;30.93;95558.13;5076843;28;20479;-70
2023/10/04 07:11:33;;;;;;;12.10;7.32;;;;;;;24.73;31.21;95558.53;5082493;28;20089;-70
2023/10/04 07:13:58;;;;;;;11.48;6.75;;;;;;;23.81;32.60;95538.28;5076329;28;20450;-71
2023/10/04 07:16:24;;;;;;;12.13;7.35;;;;;;;24.26;33.05;95562.72;5083521;28;20029;-70
2023/10/04 07:18:49;;;;;;;11.93;6.15;;;;;;;23.88;32.75;95564.88;5090253;28;20032;-71
2023/10/04 07:21:15;;;;;;;9.07;6.45;;;;;;;23.29;33.71;95560.59;5065134;28;20032;-70
2023/10/04 07:23:40;;;;;;;11.65;6.35;;;;;;;22.20;34.99;95561.22;5086644;28;20028;-70
2023/10/04 07:26:09;;;;;;;8.95;5.90;;;;;;;21.95;35.32;95557.97;5089246;28;20115;-71
2023/10/04 07:28:37;;;;;;;10.63;6.40;;;;;;;21.67;36.74;95547.16;5087117;28;20039;-71
2023/10/04 07:31:03;;;;;;;11.23;7.05;;;;;;;21.59;37.17;95541.91;5079730;28;20032;-71
2023/10/04 07:33:28;;;;;;;13.27;6.70;;;;;;;21.20;37.46;95543.69;5077146;28;20059;-70
2023/10/04 07:35:54;;;;;;;12.18;8.02;;;;;;;20.62;38.81;95541.50;5084689;28;20430;-71
2023/10/04 07:38:19;;;;;;;13.50;8.13;;;;;;;20.42;39.13;95548.94;5084174;28;20413;-71
2023/10/04 07:40:44;;;;;;;12.70;7.85;;;;;;;20.28;40.34;95545.19;5084034;28;20039;-70
2023/10/04 07:43:10;;;;;;;12.38;7.35;;;;;;;19.60;41.05;95543.78;5081685;28;20040;-72
2023/10/04 07:45:35;;;;;;;13.18;8.10;;;;;;;19.50;41.67;95546.59;5087678;28;20097;-72
2023/10/04 07:48:01;;;;;;;12.77;7.75;;;;;;;19.31;41.95;95533.75;5064342;28;20051;-71
2023/10/04 07:50:27;;;;;;;13.73;7.97;;;;;;;19.34;42.22;95541.31;5089074;28;20440;-71
2023/10/04 07:52:58;;;;;;;11.80;7.35;;;;;;;19.13;42.13;95529.44;5072099;28;20078;-72
2023/10/04 07:55:25;;;;;;;11.70;7.45;;;;;;;19.58;41.87;95535.22;5073682;28;20036;-71
2023/10/04 07:57:59;;;;;;;12.00;7.03;;;;;;;19.50;42.96;95524.69;5068670;28;20048;-72
2023/10/04 08:00:24;;;;;;;11.68;7.90;;;;;;;19.29;42.80;95541.00;5079082;28;20143;-71
2023/10/04 08:02:50;;;;;;;13.75;8.05;;;;;;;19.35;43.09;95537.69;5074829;28;20024;-72
2023/10/04 08:05:23;;;;;;;16.45;7.93;;;;;;;18.95;42.09;95481.38;5079655;28;20501;-72
2023/10/04 08:07:49;;;;;;;11.38;7.53;;;;;;;19.32;41.90;95516.94;5081565;28;20024;-71
2023/10/04 08:10:16;;;;;;;13.35;7.60;;;;;;;18.86;42.71;95546.34;5061472;28;20032;-72
2023/10/04 08:12:42;;;;;;;9.77;6.88;;;;;;;19.03;42.53;95535.81;5090181;28;20028;-72
2023/10/04 08:15:08;;;;;;;13.63;8.27;;;;;;;18.93;43.15;95525.44;5078334;28;20047;-71
2023/10/04 08:17:34;;;;;;;11.05;7.70;;;;;;;18.81;43.35;95522.31;5088068;28;20060;-72
2023/10/04 08:19:59;;;;;;;13.32;7.15;;;;;;;19.33;42.28;95516.78;5091910;28;20490;-71
2023/10/04 08:22:25;;;;;;;14.18;7.57;;;;;;;19.40;42.56;95527.50;5089729;28;20043;-72
2023/10/04 08:24:52;;;;;;;10.65;6.60;;;;;;;19.36;42.63;95523.53;5090979;28;20036;-72
2023/10/04 08:27:18;;;;;;;14.02;6.57;;;;;;;19.69;40.99;95521.75;5061034;28;20028;-72
2023/10/04 08:29:43;;;;;;;11.52;6.97;;;;;;;19.61;41.48;95508.53;5079653;28;20050;-71
2023/10/04 08:32:09;;;;;;;14.60;7.63;;;;;;;19.60;42.69;95526.16;5070518;28;20020;-71
2023/10/04 08:34:35;;;;;;;12.07;6.50;;;;;;;19.51;41.71;95524.53;5073514;28;20028;-72
2023/10/04 08:37:00;;;;;;;10.57;6.63;;;;;;;19.57;42.38;95507.25;5085286;28;20020;-71
2023/10/04 08:39:26;;;;;;;10.27;6.85;;;;;;;19.40;42.19;95507.25;5086728;28;20047;-71
2023/10/04 08:41:52;;;;;;;13.90;6.93;;;;;;;19.85;41.17;95505.09;5071469;28;20540;-71
2023/10/04 08:44:18;;;;;;;10.10;6.38;;;;;;;19.97;40.68;95501.09;5077293;28;20035;-71
2023/10/04 08:46:43;;;;;;;12.70;7.60;;;;;;;19.51;42.06;95502.63;5087472;28;20036;-73
2023/10/04 08:49:10;;;;;;;13.32;6.90;;;;;;;19.45;42.30;95498.84;5070206;28;20033;-72
2023/10/04 08:51:38;;;;;;;15.82;7.90;;;;;;;19.47;43.33;95498.66;5051731;28;20027;-72
2023/10/04 08:54:13;;;;;;;11.52;6.47;;;;;;;19.42;43.58;95501.81;5091376;28;20044;-72
2023/10/04 08:56:44;;;;;;;13.90;7.45;;;;;;;19.54;42.31;95495.22;5069179;28;20450;-71
2023/10/04 08:59:11;;;;;;;11.90;7.30;;;;;;;19.85;41.98;95495.38;5090020;28;20437;-72
2023/10/04 09:01:36;;;;;;;16.20;7.47;;;;;;;19.60;42.86;95484.00;5056511;28;20482;-71
2023/10/04 09:04:02;;;;;;;11.30;6.90;;;;;;;19.59;42.67;95500.81;5071372;28;20039;-72
2023/10/04 09:06:28;;;;;;;12.45;6.75;;;;;;;19.62;43.09;95497.84;5072196;28;20443;-72
2023/10/04 09:08:54;;;;;;;11.93;6.57;;;;;;;19.42;42.77;95507.91;5085207;28;20049;-72
2023/10/04 09:11:19;;;;;;;9.60;6.15;;;;;;;19.58;42.70;95501.78;5058713;28;20169;-71
2023/10/04 09:13:49;;;;;;;13.68;6.82;;;;;;;19.69;42.88;95499.84;5088241;28;20036;-72
2023/10/04 09:16:22;;;;;;;8.87;6.63;;;;;;;19.64;42.54;95511.69;5073041;28;20028;-72
2023/10/04 09:18:48;;;;;;;11.43;6.05;;;;;;;19.59;42.16;95500.00;5088210;28;20409;-73
2023/10/04 09:21:17;;;;;;;11.82;6.70;;;;;;;19.59;42.39;95489.47;5089801;28;20158;-71
2023/10/04 09:23:46;;;;;;;9.75;6.63;;;;;;;19.93;41.08;95491.06;5084825;28;20485;-72
2023/10/04 09:26:18;;;;;;;10.55;7.03;;;;;;;19.88;41.79;95488.94;5080659;28;20029;-70
2023/10/04 09:28:44;;;;;;;12.23;7.28;;;;;;;20.01;41.69;95491.88;5083725;28;20444;-70
2023/10/04 09:31:12;;;;;;;10.60;6.47;;;;;;;20.11;40.63;95477.66;5065296;28;20030;-70
2023/10/04 09:33:38;;;;;;;10.38;6.60;;;;;;;20.15;41.07;95485.09;5078591;28;20040;-69
2023/10/04 09:36:03;;;;;;;16.70;7.03;;;;;;;20.20;41.35;95492.50;5087948;28;20270;-70
2023/10/04 09:38:31;;;;;;;11.23;6.40;;;;;;;20.35;40.62;95489.97;5086107;28;20112;-69
2023/10/04 09:40:57;;;;;;;11.30;6.90;;;;;;;20.54;41.14;95489.59;5070997;28;20027;-69
2023/10/04 09:43:36;;;;;;;11.10;6.97;;;;;;;20.39;40.79;95486.78;5086990;28;20096;-69
2023/10/04 09:46:09;;;;;;;11.07;6.80;;;;;;;20.35;41.04;95471.50;5086540;28;20055;-69
2023/10/04 09:48:37;;;;;;;11.63;7.35;;;;;;;20.36;40.90;95481.03;5081687;28;20058;-71
2023/10/04 09:51:05;;;;;;;14.27;7.97;;;;;;;20.44;41.09;95486.28;5077512;28;20052;-71
2023/10/04 09:53:36;;;;;;;14.15;7.15;;;;;;;20.27;41.09;95461.78;5076020;28;20039;-69
2023/10/04 09:56:02;;;;;;;13.43;8.13;;;;;;;20.47;41.11;95472.75;5063028;28;20028;-69
2023/10/04 09:58:32;;;;;;;13.10;7.43;;;;;;;20.45;40.75;95475.56;5081200;28;20786;-71
2023/10/04 10:01:03;;;;;;;10.60;6.68;;;;;;;20.56;40.30;95476.19;5052746;28;20059;-69
2023/10/04 10:03:30;;;;;;;11.52;6.65;;;;;;;20.56;40.50;95461.22;5071146;28;20036;-69
2023/10/04 10:05:56;;;;;;;13.75;7.22;;;;;;;20.58;41.29;95469.75;5064742;28;20020;-70
2023/10/04 10:08:24;;;;;;;11.10;7.38;;;;;;;20.66;40.82;95471.53;5070362;28;20446;-70
2023/10/04 10:10:49;;;;;;;14.45;7.95;;;;;;;20.76;40.16;95474.78;5078362;28;20055;-70
2023/10/04 10:13:15;;;;;;;15.32;7.57;;;;;;;20.78;40.16;95464.03;5080338;28;20047;-69
2023/10/04 10:15:41;;;;;;;11.27;7.40;;;;;;;20.98;38.98;95452.88;5056816;28;20032;-71
2023/10/04 10:18:07;;;;;;;15.13;7.53;;;;;;;21.19;38.51;95457.47;5044865;28;20048;-70
2023/10/04 10:20:32;;;;;;;15.35;7.47;;;;;;;21.19;38.44;95446.09;5078762;28;20501;-70
2023/10/04 10:22:58;;;;;;;12.25;7.20;;;;;;;21.22;39.19;95451.03;5074736;28;20077;-70
2023/10/04 10:25:25;;;;;;;13.18;7.78;;;;;;;21.09;39.30;95442.88;5086865;28;20040;-70
2023/10/04 10:27:57;;;;;;;12.27;7.03;;;;;;;21.40;38.94;95433.06;5067752;28;20027;-70
2023/10/04 10:30:23;;;;;;;13.80;7.75;;;;;;;21.57;38.64;95432.94;5088339;28;20111;-71
2023/10/04 10:32:54;;;;;;;16.50;7.65;;;;;;;21.77;38.75;95422.66;5091507;28;20111;-70
2023/10/04 10:35:59;;;;;;;11.13;7.15;;;;;;;21.87;38.22;95417.91;5075100;28;20024;-70
2023/10/04 10:38:39;;;;;;;13.20;7.22;;;;;;;21.90;38.02;95422.84;5044800;28;20435;-70
2023/10/04 10:41:05;;;;;;;;;;;;;;;21.86;37.67;95427.66;5084458;28;20062;-70
2023/10/04 10:43:31;;;;;;;12.75;7.30;;;;;;;22.23;35.97;95403.94;5091034;28;19927;-70
2023/10/04 10:45:57;;;;;;;11.82;5.85;;;;;;;22.33;35.95;95417.72;5087091;28;20032;-69
2023/10/04 10:48:33;;;;;;;11.38;6.72;;;;;;;22.24;36.26;95409.06;5092628;28;20051;-70
2023/10/04 10:50:58;;;;;;;11.27;6.65;;;;;;;22.33;34.52;95401.03;5081502;28;20033;-69
2023/10/04 10:53:24;;;;;;;11.77;5.97;;;;;;;22.25;35.31;95401.94;5056677;28;20502;-70
2023/10/04 10:55:49;;;;;;;12.65;6.45;;;;;;;22.40;33.90;95401.91;5076198;28;20012;-69
2023/10/04 10:58:15;;;;;;;12.35;6.53;;;;;;;22.52;33.47;95395.94;5087151;28;20077;-71
2023/10/04 11:00:40;;;;;;;10.38;5.90;;;;;;;22.61;34.90;95386.06;5073656;28;20426;-71
2023/10/04 11:03:09;;;;;;;13.38;7.00;;;;;;;22.55;35.12;95389.47;5065430;28;20063;-71
2023/10/04 11:05:35;;;;;;;10.65;6.75;;;;;;;22.47;34.63;95381.63;5071965;28;20024;-71
2023/10/04 11:08:01;;;;;;;10.50;5.93;;;;;;;22.44;33.50;95374.06;5085902;28;20012;-71
2023/10/04 11:10:27;;;;;;;11.02;5.93;;;;;;;22.66;32.53;95382.88;5054218;28;20059;-71
2023/10/04 11:12:54;;;;;;;10.32;5.57;;;;;;;22.58;32.87;95378.50;5092259;28;20470;-71
2023/10/04 11:15:23;;;;;;;10.38;5.72;;;;;;;22.72;31.30;95377.63;5073920;28;20027;-70
2023/10/04 11:17:48;;;;;;;8.88;4.97;;;;;;;22.86;31.09;95380.41;5073820;28;20538;-71
2023/10/04 11:20:17;;;;;;;12.20;5.70;;;;;;;22.74;31.35;95375.63;5089688;28;20031;-71
2023/10/04 11:22:44;;;;;;;8.13;5.43;;;;;;;22.88;31.21;95376.56;5093421;28;20028;-71
2023/10/04 11:25:11;;;;;;;9.57;5.75;;;;;;;23.10;30.85;95366.81;5082705;28;20046;-70
2023/10/04 11:27:37;;;;;;;9.68;5.68;;;;;;;23.23;29.87;95370.56;5066434;28;20021;-68
2023/10/04 11:30:04;;;;;;;11.85;5.40;;;;;;;23.26;30.36;95364.88;5081737;28;20111;-71
2023/10/04 11:32:31;;;;;;;7.60;5.15;;;;;;;23.26;30.17;95370.16;5090006;28;20024;-71